sensor_id;sensor_type;location;lat;lon;timestamp;temperature;humidity
8778;DHT22;4425;50.872;4.712;2022-09-09T00:01:27;15.30;99.90
8778;DHT22;4425;50.872;4.712;2022-09-09T00:04:00;15.30;99.90
8778;DHT22;4425;50.872;4.712;2022-09-09T00:06:42;15.30;99.90
8778;DHT22;4425;50.872;4.712;2022-09-09T00:09:15;15.30;99.90
8778;DHT22;4425;50.872;4.712;2022-09-09T00:11:47;15.20;99.90
8778;DHT22;4425;50.872;4.712;2022-09-09T00:14:23;15.20;99.90
8778;DHT22;4425;50.872;4.712;2022-09-09T00:16:56;15.30;99.90
8778;DHT22;4425;50.872;4.712;2022-09-09T00:19:30;15.30;99.90
8778;DHT22;4425;50.872;4.712;2022-09-09T00:22:13;15.30;99.90
8778;DHT22;4425;50.872;4.712;2022-09-09T00:28:26;15.20;99.90
8778;DHT22;4425;50.872;4.712;2022-09-09T00:31:11;15.20;99.90
8778;DHT22;4425;50.872;4.712;2022-09-09T00:33:40;15.10;99.90
8778;DHT22;4425;50.872;4.712;2022-09-09T00:36:13;15.30;99.90
8778;DHT22;4425;50.872;4.712;2022-09-09T00:38:45;15.30;99.90
8778;DHT22;4425;50.872;4.712;2022-09-09T00:41:20;15.30;99.90
8778;DHT22;4425;50.872;4.712;2022-09-09T00:43:56;15.20;99.90
8778;DHT22;4425;50.872;4.712;2022-09-09T00:46:46;15.20;99.90
8778;DHT22;4425;50.872;4.712;2022-09-09T00:49:27;15.20;99.90
8778;DHT22;4425;50.872;4.712;2022-09-09T00:52:08;15.20;99.90
8778;DHT22;4425;50.872;4.712;2022-09-09T00:54:54;15.30;99.90
8778;DHT22;4425;50.872;4.712;2022-09-09T00:57:27;15.30;99.90
8778;DHT22;4425;50.872;4.712;2022-09-09T01:00:15;15.30;99.90
8778;DHT22;4425;50.872;4.712;2022-09-09T01:02:52;15.30;99.90
8778;DHT22;4425;50.872;4.712;2022-09-09T01:05:27;15.30;99.90
8778;DHT22;4425;50.872;4.712;2022-09-09T01:07:58;15.30;99.90
8778;DHT22;4425;50.872;4.712;2022-09-09T01:10:39;15.30;99.90
8778;DHT22;4425;50.872;4.712;2022-09-09T01:13:17;15.30;99.90
8778;DHT22;4425;50.872;4.712;2022-09-09T01:15:54;15.30;99.90
8778;DHT22;4425;50.872;4.712;2022-09-09T01:18:23;15.30;99.90
8778;DHT22;4425;50.872;4.712;2022-09-09T01:21:02;15.30;99.90
8778;DHT22;4425;50.872;4.712;2022-09-09T01:23:58;15.30;99.90
8778;DHT22;4425;50.872;4.712;2022-09-09T01:26:37;15.30;99.90
8778;DHT22;4425;50.872;4.712;2022-09-09T01:29:08;15.30;99.90
8778;DHT22;4425;50.872;4.712;2022-09-09T01:31:38;15.30;99.90
8778;DHT22;4425;50.872;4.712;2022-09-09T01:34:10;15.30;99.90
8778;DHT22;4425;50.872;4.712;2022-09-09T01:36:43;15.30;99.90
8778;DHT22;4425;50.872;4.712;2022-09-09T01:39:12;15.30;99.90
8778;DHT22;4425;50.872;4.712;2022-09-09T01:41:42;15.30;99.90
8778;DHT22;4425;50.872;4.712;2022-09-09T01:44:10;15.30;99.90
8778;DHT22;4425;50.872;4.712;2022-09-09T01:50:20;15.30;99.90
8778;DHT22;4425;50.872;4.712;2022-09-09T01:52:50;15.30;99.90
8778;DHT22;4425;50.872;4.712;2022-09-09T01:55:26;15.40;99.90
8778;DHT22;4425;50.872;4.712;2022-09-09T01:58:16;15.30;99.90
8778;DHT22;4425;50.872;4.712;2022-09-09T02:00:56;15.30;99.90
8778;DHT22;4425;50.872;4.712;2022-09-09T02:03:32;15.40;99.90
8778;DHT22;4425;50.872;4.712;2022-09-09T02:06:12;15.40;99.90
8778;DHT22;4425;50.872;4.712;2022-09-09T02:15:44;15.40;99.90
8778;DHT22;4425;50.872;4.712;2022-09-09T02:18:15;15.30;99.90
8778;DHT22;4425;50.872;4.712;2022-09-09T02:20:56;15.40;99.90
8778;DHT22;4425;50.872;4.712;2022-09-09T02:23:26;15.40;99.90
8778;DHT22;4425;50.872;4.712;2022-09-09T02:26:01;15.40;99.90
8778;DHT22;4425;50.872;4.712;2022-09-09T02:28:31;15.40;99.90
8778;DHT22;4425;50.872;4.712;2022-09-09T02:31:04;15.40;99.90
8778;DHT22;4425;50.872;4.712;2022-09-09T02:33:39;15.40;99.90
8778;DHT22;4425;50.872;4.712;2022-09-09T02:39:10;15.40;99.90
8778;DHT22;4425;50.872;4.712;2022-09-09T02:41:42;15.40;99.90
8778;DHT22;4425;50.872;4.712;2022-09-09T02:44:14;15.40;99.90
8778;DHT22;4425;50.872;4.712;2022-09-09T02:47:03;15.40;99.90
8778;DHT22;4425;50.872;4.712;2022-09-09T02:49:40;15.40;99.90
8778;DHT22;4425;50.872;4.712;2022-09-09T02:52:13;15.40;99.90
8778;DHT22;4425;50.872;4.712;2022-09-09T02:54:43;15.30;99.90
8778;DHT22;4425;50.872;4.712;2022-09-09T02:57:12;15.30;99.90
8778;DHT22;4425;50.872;4.712;2022-09-09T02:59:44;15.30;99.90
8778;DHT22;4425;50.872;4.712;2022-09-09T03:02:14;15.30;99.90
8778;DHT22;4425;50.872;4.712;2022-09-09T03:04:52;15.30;99.90
8778;DHT22;4425;50.872;4.712;2022-09-09T03:07:21;15.30;99.90
8778;DHT22;4425;50.872;4.712;2022-09-09T03:09:52;15.30;99.90
8778;DHT22;4425;50.872;4.712;2022-09-09T03:16:02;15.40;99.90
8778;DHT22;4425;50.872;4.712;2022-09-09T03:18:30;15.30;99.90
8778;DHT22;4425;50.872;4.712;2022-09-09T03:20:59;15.30;99.90
8778;DHT22;4425;50.872;4.712;2022-09-09T03:23:26;15.30;99.90
8778;DHT22;4425;50.872;4.712;2022-09-09T03:26:08;15.40;99.90
8778;DHT22;4425;50.872;4.712;2022-09-09T03:28:39;15.40;99.90
8778;DHT22;4425;50.872;4.712;2022-09-09T03:31:14;15.30;99.90
8778;DHT22;4425;50.872;4.712;2022-09-09T03:33:47;15.40;99.90
8778;DHT22;4425;50.872;4.712;2022-09-09T03:36:16;15.40;99.90
8778;DHT22;4425;50.872;4.712;2022-09-09T03:38:43;15.40;99.90
8778;DHT22;4425;50.872;4.712;2022-09-09T03:41:11;15.40;99.90
8778;DHT22;4425;50.872;4.712;2022-09-09T03:43:46;15.30;99.90
8778;DHT22;4425;50.872;4.712;2022-09-09T03:50:00;15.40;99.90
8778;DHT22;4425;50.872;4.712;2022-09-09T03:56:08;15.40;99.90
8778;DHT22;4425;50.872;4.712;2022-09-09T03:58:38;15.40;99.90
8778;DHT22;4425;50.872;4.712;2022-09-09T04:01:11;15.40;99.90
8778;DHT22;4425;50.872;4.712;2022-09-09T04:03:42;15.30;99.90
8778;DHT22;4425;50.872;4.712;2022-09-09T04:06:13;15.30;99.90
8778;DHT22;4425;50.872;4.712;2022-09-09T04:08:42;15.30;99.90
8778;DHT22;4425;50.872;4.712;2022-09-09T04:11:11;15.30;99.90
8778;DHT22;4425;50.872;4.712;2022-09-09T04:13:41;15.30;99.90
8778;DHT22;4425;50.872;4.712;2022-09-09T04:16:11;15.30;99.90
8778;DHT22;4425;50.872;4.712;2022-09-09T04:18:52;15.20;99.90
8778;DHT22;4425;50.872;4.712;2022-09-09T04:21:36;15.20;99.90
8778;DHT22;4425;50.872;4.712;2022-09-09T04:24:09;15.20;99.90
8778;DHT22;4425;50.872;4.712;2022-09-09T04:26:38;15.20;99.90
8778;DHT22;4425;50.872;4.712;2022-09-09T04:29:08;15.20;99.90
8778;DHT22;4425;50.872;4.712;2022-09-09T04:31:47;15.20;99.90
8778;DHT22;4425;50.872;4.712;2022-09-09T04:34:16;15.20;99.90
8778;DHT22;4425;50.872;4.712;2022-09-09T04:36:46;15.20;99.90
8778;DHT22;4425;50.872;4.712;2022-09-09T04:39:15;15.30;99.90
8778;DHT22;4425;50.872;4.712;2022-09-09T04:41:58;15.30;99.90
8778;DHT22;4425;50.872;4.712;2022-09-09T04:44:29;15.30;99.90
8778;DHT22;4425;50.872;4.712;2022-09-09T04:47:00;15.40;99.90
8778;DHT22;4425;50.872;4.712;2022-09-09T04:49:27;15.30;99.90
8778;DHT22;4425;50.872;4.712;2022-09-09T04:52:05;15.30;99.90
8778;DHT22;4425;50.872;4.712;2022-09-09T04:54:33;15.30;99.90
8778;DHT22;4425;50.872;4.712;2022-09-09T04:57:03;15.30;99.90
8778;DHT22;4425;50.872;4.712;2022-09-09T04:59:48;15.30;99.90
8778;DHT22;4425;50.872;4.712;2022-09-09T05:02:16;15.20;99.90
8778;DHT22;4425;50.872;4.712;2022-09-09T05:04:47;15.20;99.90
8778;DHT22;4425;50.872;4.712;2022-09-09T05:07:19;15.20;99.90
8778;DHT22;4425;50.872;4.712;2022-09-09T05:09:48;15.20;99.90
8778;DHT22;4425;50.872;4.712;2022-09-09T05:12:16;15.20;99.90
8778;DHT22;4425;50.872;4.712;2022-09-09T05:14:51;15.30;99.90
8778;DHT22;4425;50.872;4.712;2022-09-09T05:24:46;15.20;99.90
8778;DHT22;4425;50.872;4.712;2022-09-09T05:27:22;15.20;99.90
8778;DHT22;4425;50.872;4.712;2022-09-09T05:29:50;15.30;99.90
8778;DHT22;4425;50.872;4.712;2022-09-09T05:32:24;15.30;99.90
8778;DHT22;4425;50.872;4.712;2022-09-09T05:34:52;15.40;99.90
8778;DHT22;4425;50.872;4.712;2022-09-09T05:37:22;15.40;99.90
8778;DHT22;4425;50.872;4.712;2022-09-09T05:39:51;15.40;99.90
8778;DHT22;4425;50.872;4.712;2022-09-09T05:42:23;15.70;99.90
8778;DHT22;4425;50.872;4.712;2022-09-09T05:44:51;15.50;99.90
8778;DHT22;4425;50.872;4.712;2022-09-09T05:47:21;15.60;99.90
8778;DHT22;4425;50.872;4.712;2022-09-09T05:49:52;15.60;99.90
8778;DHT22;4425;50.872;4.712;2022-09-09T05:52:22;15.70;99.90
8778;DHT22;4425;50.872;4.712;2022-09-09T05:54:56;15.80;99.90
8778;DHT22;4425;50.872;4.712;2022-09-09T05:57:24;15.90;99.90
8778;DHT22;4425;50.872;4.712;2022-09-09T05:59:52;16.00;99.90
8778;DHT22;4425;50.872;4.712;2022-09-09T06:02:21;16.10;99.90
8778;DHT22;4425;50.872;4.712;2022-09-09T06:04:52;16.20;99.90
8778;DHT22;4425;50.872;4.712;2022-09-09T06:07:24;16.30;99.90
8778;DHT22;4425;50.872;4.712;2022-09-09T06:10:00;16.30;99.90
8778;DHT22;4425;50.872;4.712;2022-09-09T06:12:27;16.20;99.90
8778;DHT22;4425;50.872;4.712;2022-09-09T06:14:54;16.40;99.90
8778;DHT22;4425;50.872;4.712;2022-09-09T06:17:24;16.40;99.90
8778;DHT22;4425;50.872;4.712;2022-09-09T06:19:52;16.30;99.90
8778;DHT22;4425;50.872;4.712;2022-09-09T06:22:20;16.30;99.90
8778;DHT22;4425;50.872;4.712;2022-09-09T06:24:49;16.30;99.90
8778;DHT22;4425;50.872;4.712;2022-09-09T06:27:18;16.20;99.90
8778;DHT22;4425;50.872;4.712;2022-09-09T06:29:45;16.30;99.90
8778;DHT22;4425;50.872;4.712;2022-09-09T06:32:17;16.30;99.90
8778;DHT22;4425;50.872;4.712;2022-09-09T06:34:45;16.30;99.90
8778;DHT22;4425;50.872;4.712;2022-09-09T06:37:14;16.30;99.90
8778;DHT22;4425;50.872;4.712;2022-09-09T06:39:42;16.50;99.90
8778;DHT22;4425;50.872;4.712;2022-09-09T06:42:13;16.50;99.90
8778;DHT22;4425;50.872;4.712;2022-09-09T06:44:43;16.60;99.90
8778;DHT22;4425;50.872;4.712;2022-09-09T06:47:12;16.60;99.90
8778;DHT22;4425;50.872;4.712;2022-09-09T06:49:43;16.90;99.90
8778;DHT22;4425;50.872;4.712;2022-09-09T06:52:10;17.20;99.90
8778;DHT22;4425;50.872;4.712;2022-09-09T06:54:39;17.30;99.90
8778;DHT22;4425;50.872;4.712;2022-09-09T06:57:07;17.40;99.90
8778;DHT22;4425;50.872;4.712;2022-09-09T06:59:36;17.30;99.90
8778;DHT22;4425;50.872;4.712;2022-09-09T07:02:06;17.30;99.90
8778;DHT22;4425;50.872;4.712;2022-09-09T07:04:34;17.30;99.90
8778;DHT22;4425;50.872;4.712;2022-09-09T07:07:03;17.20;99.90
8778;DHT22;4425;50.872;4.712;2022-09-09T07:16:34;17.00;99.90
8778;DHT22;4425;50.872;4.712;2022-09-09T07:19:09;16.90;99.90
8778;DHT22;4425;50.872;4.712;2022-09-09T07:25:18;16.90;99.90
8778;DHT22;4425;50.872;4.712;2022-09-09T07:27:47;16.90;99.90
8778;DHT22;4425;50.872;4.712;2022-09-09T07:30:15;16.90;99.90
8778;DHT22;4425;50.872;4.712;2022-09-09T07:32:42;17.00;99.90
8778;DHT22;4425;50.872;4.712;2022-09-09T07:35:11;17.10;99.90
8778;DHT22;4425;50.872;4.712;2022-09-09T07:37:38;17.10;99.90
8778;DHT22;4425;50.872;4.712;2022-09-09T07:40:07;17.10;99.90
8778;DHT22;4425;50.872;4.712;2022-09-09T07:42:35;17.10;99.90
8778;DHT22;4425;50.872;4.712;2022-09-09T07:45:11;17.10;99.90
8778;DHT22;4425;50.872;4.712;2022-09-09T07:47:39;17.10;99.90
8778;DHT22;4425;50.872;4.712;2022-09-09T07:50:10;17.10;99.90
8778;DHT22;4425;50.872;4.712;2022-09-09T07:52:41;17.10;99.90
8778;DHT22;4425;50.872;4.712;2022-09-09T07:55:13;17.10;99.90
8778;DHT22;4425;50.872;4.712;2022-09-09T07:57:40;17.10;99.90
8778;DHT22;4425;50.872;4.712;2022-09-09T08:00:09;17.10;99.90
8778;DHT22;4425;50.872;4.712;2022-09-09T08:02:36;17.20;99.90
8778;DHT22;4425;50.872;4.712;2022-09-09T08:05:04;17.30;99.90
8778;DHT22;4425;50.872;4.712;2022-09-09T08:07:34;17.40;99.90
8778;DHT22;4425;50.872;4.712;2022-09-09T08:10:03;17.50;99.90
8778;DHT22;4425;50.872;4.712;2022-09-09T08:12:30;17.60;99.90
8778;DHT22;4425;50.872;4.712;2022-09-09T08:14:57;17.70;99.90
8778;DHT22;4425;50.872;4.712;2022-09-09T08:17:25;17.80;99.90
8778;DHT22;4425;50.872;4.712;2022-09-09T08:19:54;17.90;99.90
8778;DHT22;4425;50.872;4.712;2022-09-09T08:22:22;18.00;99.90
8778;DHT22;4425;50.872;4.712;2022-09-09T08:24:55;18.20;99.90
8778;DHT22;4425;50.872;4.712;2022-09-09T08:27:24;18.80;99.90
8778;DHT22;4425;50.872;4.712;2022-09-09T08:29:53;19.10;99.90
8778;DHT22;4425;50.872;4.712;2022-09-09T08:32:21;19.20;99.90
8778;DHT22;4425;50.872;4.712;2022-09-09T08:34:49;20.20;99.90
8778;DHT22;4425;50.872;4.712;2022-09-09T08:37:17;20.30;99.90
8778;DHT22;4425;50.872;4.712;2022-09-09T08:39:49;19.90;99.90
8778;DHT22;4425;50.872;4.712;2022-09-09T08:42:32;19.60;99.90
8778;DHT22;4425;50.872;4.712;2022-09-09T08:45:14;19.30;99.90
8778;DHT22;4425;50.872;4.712;2022-09-09T08:47:53;19.00;99.90
8778;DHT22;4425;50.872;4.712;2022-09-09T08:50:26;18.80;99.90
8778;DHT22;4425;50.872;4.712;2022-09-09T08:52:59;18.70;99.90
8778;DHT22;4425;50.872;4.712;2022-09-09T08:55:41;18.60;99.90
8778;DHT22;4425;50.872;4.712;2022-09-09T08:58:15;18.30;99.90
8778;DHT22;4425;50.872;4.712;2022-09-09T09:01:05;18.20;99.90
8778;DHT22;4425;50.872;4.712;2022-09-09T09:03:44;18.10;99.90
8778;DHT22;4425;50.872;4.712;2022-09-09T09:06:24;18.00;99.90
8778;DHT22;4425;50.872;4.712;2022-09-09T09:09:13;17.80;99.90
8778;DHT22;4425;50.872;4.712;2022-09-09T09:11:54;17.70;99.90
8778;DHT22;4425;50.872;4.712;2022-09-09T09:14:43;17.60;99.90
8778;DHT22;4425;50.872;4.712;2022-09-09T09:17:13;17.50;99.90
8778;DHT22;4425;50.872;4.712;2022-09-09T09:19:42;17.50;99.90
8778;DHT22;4425;50.872;4.712;2022-09-09T09:22:21;17.50;99.90
8778;DHT22;4425;50.872;4.712;2022-09-09T09:24:55;17.40;99.90
8778;DHT22;4425;50.872;4.712;2022-09-09T09:31:09;17.50;99.90
8778;DHT22;4425;50.872;4.712;2022-09-09T09:33:45;17.40;99.90
8778;DHT22;4425;50.872;4.712;2022-09-09T09:36:16;17.30;99.90
8778;DHT22;4425;50.872;4.712;2022-09-09T09:38:53;17.30;99.90
8778;DHT22;4425;50.872;4.712;2022-09-09T09:41:34;17.30;99.90
8778;DHT22;4425;50.872;4.712;2022-09-09T09:44:19;17.20;99.90
8778;DHT22;4425;50.872;4.712;2022-09-09T09:46:51;17.20;99.90
8778;DHT22;4425;50.872;4.712;2022-09-09T09:49:20;17.20;99.90
8778;DHT22;4425;50.872;4.712;2022-09-09T09:51:47;17.10;99.90
8778;DHT22;4425;50.872;4.712;2022-09-09T09:54:25;17.10;99.90
8778;DHT22;4425;50.872;4.712;2022-09-09T09:56:55;17.10;99.90
8778;DHT22;4425;50.872;4.712;2022-09-09T09:59:32;17.10;99.90
8778;DHT22;4425;50.872;4.712;2022-09-09T10:02:18;17.20;99.90
8778;DHT22;4425;50.872;4.712;2022-09-09T10:04:47;17.20;99.90
8778;DHT22;4425;50.872;4.712;2022-09-09T10:07:18;17.30;99.90
8778;DHT22;4425;50.872;4.712;2022-09-09T10:09:53;17.30;99.90
8778;DHT22;4425;50.872;4.712;2022-09-09T10:12:26;17.30;99.90
8778;DHT22;4425;50.872;4.712;2022-09-09T10:15:02;17.40;99.90
8778;DHT22;4425;50.872;4.712;2022-09-09T10:17:40;17.40;99.90
8778;DHT22;4425;50.872;4.712;2022-09-09T10:20:23;17.50;99.90
8778;DHT22;4425;50.872;4.712;2022-09-09T10:23:03;17.40;99.90
8778;DHT22;4425;50.872;4.712;2022-09-09T10:25:51;17.30;99.90
8778;DHT22;4425;50.872;4.712;2022-09-09T10:28:51;17.30;99.90
8778;DHT22;4425;50.872;4.712;2022-09-09T10:31:29;17.40;99.90
8778;DHT22;4425;50.872;4.712;2022-09-09T10:34:17;17.50;99.90
8778;DHT22;4425;50.872;4.712;2022-09-09T10:40:32;17.50;99.90
8778;DHT22;4425;50.872;4.712;2022-09-09T10:43:19;17.40;99.90
8778;DHT22;4425;50.872;4.712;2022-09-09T10:45:55;17.40;99.90
8778;DHT22;4425;50.872;4.712;2022-09-09T10:48:33;17.50;99.90
8778;DHT22;4425;50.872;4.712;2022-09-09T10:51:17;17.40;99.90
8778;DHT22;4425;50.872;4.712;2022-09-09T10:54:07;17.40;99.90
8778;DHT22;4425;50.872;4.712;2022-09-09T10:56:41;17.50;99.90
8778;DHT22;4425;50.872;4.712;2022-09-09T10:59:13;17.60;99.90
8778;DHT22;4425;50.872;4.712;2022-09-09T11:01:58;17.60;99.90
8778;DHT22;4425;50.872;4.712;2022-09-09T11:04:32;17.70;99.90
8778;DHT22;4425;50.872;4.712;2022-09-09T11:07:07;17.80;99.90
8778;DHT22;4425;50.872;4.712;2022-09-09T11:09:40;17.90;99.90
8778;DHT22;4425;50.872;4.712;2022-09-09T11:12:15;17.90;99.90
8778;DHT22;4425;50.872;4.712;2022-09-09T11:14:49;18.00;99.90
8778;DHT22;4425;50.872;4.712;2022-09-09T11:17:22;18.00;99.90
8778;DHT22;4425;50.872;4.712;2022-09-09T11:19:50;18.20;99.90
8778;DHT22;4425;50.872;4.712;2022-09-09T11:22:29;18.30;99.90
8778;DHT22;4425;50.872;4.712;2022-09-09T11:25:03;18.40;99.90
8778;DHT22;4425;50.872;4.712;2022-09-09T11:28:02;18.50;99.90
8778;DHT22;4425;50.872;4.712;2022-09-09T11:30:51;18.60;99.90
8778;DHT22;4425;50.872;4.712;2022-09-09T11:33:49;18.80;99.90
8778;DHT22;4425;50.872;4.712;2022-09-09T11:39:46;19.00;99.90
8778;DHT22;4425;50.872;4.712;2022-09-09T11:42:18;19.20;99.90
8778;DHT22;4425;50.872;4.712;2022-09-09T11:44:45;19.40;99.90
8778;DHT22;4425;50.872;4.712;2022-09-09T11:47:20;19.50;99.90
8778;DHT22;4425;50.872;4.712;2022-09-09T11:49:51;19.60;99.90
8778;DHT22;4425;50.872;4.712;2022-09-09T11:52:39;19.60;99.90
8778;DHT22;4425;50.872;4.712;2022-09-09T11:55:12;19.60;99.90
8778;DHT22;4425;50.872;4.712;2022-09-09T11:57:57;19.60;99.90
8778;DHT22;4425;50.872;4.712;2022-09-09T12:00:34;19.80;99.90
8778;DHT22;4425;50.872;4.712;2022-09-09T12:03:33;19.90;99.90
8778;DHT22;4425;50.872;4.712;2022-09-09T12:06:11;20.00;99.90
8778;DHT22;4425;50.872;4.712;2022-09-09T12:08:43;20.20;99.90
8778;DHT22;4425;50.872;4.712;2022-09-09T12:11:24;20.30;99.90
8778;DHT22;4425;50.872;4.712;2022-09-09T12:13:56;20.60;99.90
8778;DHT22;4425;50.872;4.712;2022-09-09T12:16:31;20.70;99.90
8778;DHT22;4425;50.872;4.712;2022-09-09T12:19:06;20.70;99.90
8778;DHT22;4425;50.872;4.712;2022-09-09T12:21:38;20.40;99.90
8778;DHT22;4425;50.872;4.712;2022-09-09T12:24:09;20.30;99.90
8778;DHT22;4425;50.872;4.712;2022-09-09T12:26:45;20.20;99.90
8778;DHT22;4425;50.872;4.712;2022-09-09T12:29:25;20.10;99.90
8778;DHT22;4425;50.872;4.712;2022-09-09T12:32:01;20.10;99.90
8778;DHT22;4425;50.872;4.712;2022-09-09T12:34:39;20.10;99.90
8778;DHT22;4425;50.872;4.712;2022-09-09T12:37:16;20.30;99.90
8778;DHT22;4425;50.872;4.712;2022-09-09T12:40:04;20.60;99.90
8778;DHT22;4425;50.872;4.712;2022-09-09T12:46:20;20.60;99.90
8778;DHT22;4425;50.872;4.712;2022-09-09T12:48:49;20.60;99.90
8778;DHT22;4425;50.872;4.712;2022-09-09T12:51:21;20.60;99.90
8778;DHT22;4425;50.872;4.712;2022-09-09T12:53:53;20.40;99.90
8778;DHT22;4425;50.872;4.712;2022-09-09T12:56:23;20.30;99.90
8778;DHT22;4425;50.872;4.712;2022-09-09T12:58:54;20.20;99.90
8778;DHT22;4425;50.872;4.712;2022-09-09T13:01:26;20.10;99.90
8778;DHT22;4425;50.872;4.712;2022-09-09T13:03:54;20.10;99.90
8778;DHT22;4425;50.872;4.712;2022-09-09T13:10:04;20.30;99.90
8778;DHT22;4425;50.872;4.712;2022-09-09T13:12:32;20.50;99.90
8778;DHT22;4425;50.872;4.712;2022-09-09T13:14:59;20.70;99.90
8778;DHT22;4425;50.872;4.712;2022-09-09T13:17:29;20.90;99.90
8778;DHT22;4425;50.872;4.712;2022-09-09T13:20:00;21.00;99.90
8778;DHT22;4425;50.872;4.712;2022-09-09T13:22:41;21.10;99.90
8778;DHT22;4425;50.872;4.712;2022-09-09T13:25:19;21.00;99.90
8778;DHT22;4425;50.872;4.712;2022-09-09T13:27:57;21.10;99.90
8778;DHT22;4425;50.872;4.712;2022-09-09T13:33:43;21.10;99.90
8778;DHT22;4425;50.872;4.712;2022-09-09T13:36:27;21.20;99.90
8778;DHT22;4425;50.872;4.712;2022-09-09T13:38:58;21.20;99.90
8778;DHT22;4425;50.872;4.712;2022-09-09T13:41:30;21.30;99.90
8778;DHT22;4425;50.872;4.712;2022-09-09T13:43:59;21.30;99.90
8778;DHT22;4425;50.872;4.712;2022-09-09T13:46:35;21.40;99.90
8778;DHT22;4425;50.872;4.712;2022-09-09T13:49:20;21.30;99.90
8778;DHT22;4425;50.872;4.712;2022-09-09T13:51:49;21.30;99.90
8778;DHT22;4425;50.872;4.712;2022-09-09T13:54:20;21.40;99.90
8778;DHT22;4425;50.872;4.712;2022-09-09T13:56:48;21.20;99.90
8778;DHT22;4425;50.872;4.712;2022-09-09T13:59:19;21.30;99.90
8778;DHT22;4425;50.872;4.712;2022-09-09T14:08:56;21.00;99.90
8778;DHT22;4425;50.872;4.712;2022-09-09T14:11:24;21.00;99.90
8778;DHT22;4425;50.872;4.712;2022-09-09T14:13:51;21.00;99.90
8778;DHT22;4425;50.872;4.712;2022-09-09T14:16:19;21.10;99.90
8778;DHT22;4425;50.872;4.712;2022-09-09T14:18:53;21.30;99.90
8778;DHT22;4425;50.872;4.712;2022-09-09T14:21:26;21.50;99.90
8778;DHT22;4425;50.872;4.712;2022-09-09T14:23:57;21.40;99.90
8778;DHT22;4425;50.872;4.712;2022-09-09T14:26:28;21.40;99.90
8778;DHT22;4425;50.872;4.712;2022-09-09T14:28:58;21.40;99.90
8778;DHT22;4425;50.872;4.712;2022-09-09T14:31:26;21.40;99.90
8778;DHT22;4425;50.872;4.712;2022-09-09T14:33:54;21.40;99.90
8778;DHT22;4425;50.872;4.712;2022-09-09T14:36:25;21.40;99.90
8778;DHT22;4425;50.872;4.712;2022-09-09T14:42:00;21.50;99.90
8778;DHT22;4425;50.872;4.712;2022-09-09T14:44:28;21.50;99.90
8778;DHT22;4425;50.872;4.712;2022-09-09T14:46:55;21.50;99.90
8778;DHT22;4425;50.872;4.712;2022-09-09T14:49:22;21.30;99.90
8778;DHT22;4425;50.872;4.712;2022-09-09T14:51:49;21.20;99.90
8778;DHT22;4425;50.872;4.712;2022-09-09T14:54:21;21.20;99.90
8778;DHT22;4425;50.872;4.712;2022-09-09T14:56:53;21.20;99.90
8778;DHT22;4425;50.872;4.712;2022-09-09T14:59:22;21.30;99.90
8778;DHT22;4425;50.872;4.712;2022-09-09T15:01:49;21.10;99.90
8778;DHT22;4425;50.872;4.712;2022-09-09T15:04:16;21.20;99.90
8778;DHT22;4425;50.872;4.712;2022-09-09T15:06:43;21.30;99.90
8778;DHT22;4425;50.872;4.712;2022-09-09T15:09:15;21.40;99.90
8778;DHT22;4425;50.872;4.712;2022-09-09T15:11:54;21.30;99.90
8778;DHT22;4425;50.872;4.712;2022-09-09T15:14:24;21.30;99.90
8778;DHT22;4425;50.872;4.712;2022-09-09T15:16:53;21.30;99.90
8778;DHT22;4425;50.872;4.712;2022-09-09T15:19:24;21.30;99.90
8778;DHT22;4425;50.872;4.712;2022-09-09T15:21:55;21.30;99.90
8778;DHT22;4425;50.872;4.712;2022-09-09T15:24:22;21.40;99.90
8778;DHT22;4425;50.872;4.712;2022-09-09T15:26:51;21.30;99.90
8778;DHT22;4425;50.872;4.712;2022-09-09T15:29:21;21.20;99.90
8778;DHT22;4425;50.872;4.712;2022-09-09T15:31:52;21.20;99.90
8778;DHT22;4425;50.872;4.712;2022-09-09T15:37:27;21.10;99.90
8778;DHT22;4425;50.872;4.712;2022-09-09T15:39:55;21.00;99.90
8778;DHT22;4425;50.872;4.712;2022-09-09T15:42:24;20.90;99.90
8778;DHT22;4425;50.872;4.712;2022-09-09T15:44:52;21.00;99.90
8778;DHT22;4425;50.872;4.712;2022-09-09T15:47:20;21.00;99.90
8778;DHT22;4425;50.872;4.712;2022-09-09T15:49:49;21.10;99.90
8778;DHT22;4425;50.872;4.712;2022-09-09T15:52:21;21.20;99.90
8778;DHT22;4425;50.872;4.712;2022-09-09T15:54:48;21.20;99.90
8778;DHT22;4425;50.872;4.712;2022-09-09T15:57:15;21.10;99.90
8778;DHT22;4425;50.872;4.712;2022-09-09T15:59:43;21.10;99.90
8778;DHT22;4425;50.872;4.712;2022-09-09T16:02:10;21.00;99.90
8778;DHT22;4425;50.872;4.712;2022-09-09T16:04:39;21.00;99.90
8778;DHT22;4425;50.872;4.712;2022-09-09T16:07:08;21.00;99.90
8778;DHT22;4425;50.872;4.712;2022-09-09T16:09:35;21.10;99.90
8778;DHT22;4425;50.872;4.712;2022-09-09T16:12:04;21.10;99.90
8778;DHT22;4425;50.872;4.712;2022-09-09T16:14:35;21.10;99.90
8778;DHT22;4425;50.872;4.712;2022-09-09T16:17:07;21.00;99.90
8778;DHT22;4425;50.872;4.712;2022-09-09T16:22:29;21.00;99.90
8778;DHT22;4425;50.872;4.712;2022-09-09T16:24:57;20.90;99.90
8778;DHT22;4425;50.872;4.712;2022-09-09T16:27:24;20.80;99.90
8778;DHT22;4425;50.872;4.712;2022-09-09T16:29:52;20.70;99.90
8778;DHT22;4425;50.872;4.712;2022-09-09T16:32:19;20.60;99.90
8778;DHT22;4425;50.872;4.712;2022-09-09T16:34:48;20.50;99.90
8778;DHT22;4425;50.872;4.712;2022-09-09T16:37:15;20.50;99.90
8778;DHT22;4425;50.872;4.712;2022-09-09T16:39:44;20.40;99.90
8778;DHT22;4425;50.872;4.712;2022-09-09T16:42:15;20.40;99.90
8778;DHT22;4425;50.872;4.712;2022-09-09T16:48:18;20.30;99.90
8778;DHT22;4425;50.872;4.712;2022-09-09T16:50:46;20.20;99.90
8778;DHT22;4425;50.872;4.712;2022-09-09T16:53:13;20.10;99.90
8778;DHT22;4425;50.872;4.712;2022-09-09T16:55:42;20.00;99.90
8778;DHT22;4425;50.872;4.712;2022-09-09T16:58:10;19.90;99.90
8778;DHT22;4425;50.872;4.712;2022-09-09T17:00:37;19.80;99.90
8778;DHT22;4425;50.872;4.712;2022-09-09T17:03:04;19.60;99.90
8778;DHT22;4425;50.872;4.712;2022-09-09T17:05:31;19.40;99.90
8778;DHT22;4425;50.872;4.712;2022-09-09T17:07:59;19.20;99.90
8778;DHT22;4425;50.872;4.712;2022-09-09T17:10:26;19.20;99.90
8778;DHT22;4425;50.872;4.712;2022-09-09T17:12:54;19.20;99.90
8778;DHT22;4425;50.872;4.712;2022-09-09T17:15:22;19.10;99.90
8778;DHT22;4425;50.872;4.712;2022-09-09T17:17:50;19.10;99.90
8778;DHT22;4425;50.872;4.712;2022-09-09T17:20:23;19.00;99.90
8778;DHT22;4425;50.872;4.712;2022-09-09T17:33:04;19.00;99.90
8778;DHT22;4425;50.872;4.712;2022-09-09T17:35:59;18.90;99.90
8778;DHT22;4425;50.872;4.712;2022-09-09T17:38:27;18.90;99.90
8778;DHT22;4425;50.872;4.712;2022-09-09T17:41:02;18.90;99.90
8778;DHT22;4425;50.872;4.712;2022-09-09T17:43:29;18.90;99.90
8778;DHT22;4425;50.872;4.712;2022-09-09T17:46:05;18.90;99.90
8778;DHT22;4425;50.872;4.712;2022-09-09T17:48:34;18.80;99.90
8778;DHT22;4425;50.872;4.712;2022-09-09T17:51:02;18.80;99.90
8778;DHT22;4425;50.872;4.712;2022-09-09T17:53:31;18.70;99.90
8778;DHT22;4425;50.872;4.712;2022-09-09T17:56:03;18.60;99.90
8778;DHT22;4425;50.872;4.712;2022-09-09T17:58:31;18.40;99.90
8778;DHT22;4425;50.872;4.712;2022-09-09T18:01:02;18.30;99.90
8778;DHT22;4425;50.872;4.712;2022-09-09T18:03:34;18.20;99.90
8778;DHT22;4425;50.872;4.712;2022-09-09T18:06:02;18.20;99.90
8778;DHT22;4425;50.872;4.712;2022-09-09T18:08:30;18.20;99.90
8778;DHT22;4425;50.872;4.712;2022-09-09T18:10:57;18.10;99.90
8778;DHT22;4425;50.872;4.712;2022-09-09T18:13:26;18.10;99.90
8778;DHT22;4425;50.872;4.712;2022-09-09T18:15:53;18.00;99.90